createdAt,value
2023-01-30T00:00:36.568Z,101475.19
2023-01-30T00:03:03.265Z,101478.25
2023-01-30T00:05:29.835Z,101480.44
2023-01-30T00:07:56.551Z,101479.25
2023-01-30T00:10:25.962Z,101476.69
2023-01-30T00:12:52.779Z,101464.34
2023-01-30T00:15:19.423Z,101476.38
2023-01-30T00:17:46.262Z,101468.25
2023-01-30T00:20:14.810Z,101475.78
2023-01-30T00:22:49.306Z,101476.91
2023-01-30T00:25:23.012Z,101475.47
2023-01-30T00:27:49.671Z,101475.97
2023-01-30T00:30:16.586Z,101474.53
2023-01-30T00:32:43.458Z,101476.75
2023-01-30T00:35:10.012Z,101471.66
2023-01-30T00:37:36.629Z,101473.84
2023-01-30T00:40:03.382Z,101471.31
2023-01-30T00:42:48.737Z,101475.19
2023-01-30T00:45:34.060Z,101474.34
2023-01-30T00:48:00.791Z,101470.72
2023-01-30T00:50:42.687Z,101474.97
2023-01-30T00:53:12.764Z,101472.16
2023-01-30T00:55:39.333Z,101479.44
2023-01-30T00:58:06.451Z,101464.88
2023-01-30T01:00:33.021Z,101469.03
2023-01-30T01:02:59.742Z,101468.72
2023-01-30T01:05:26.509Z,101468.94
2023-01-30T01:07:53.241Z,101465.31
2023-01-30T01:10:19.896Z,101456.28
2023-01-30T01:12:46.733Z,101460.06
2023-01-30T01:15:13.726Z,101456.38
2023-01-30T01:17:40.803Z,101466.56
2023-01-30T01:20:07.769Z,101462.34
2023-01-30T01:22:34.440Z,101454.75
2023-01-30T01:25:01.002Z,101454.41
2023-01-30T01:27:27.754Z,101447.88
2023-01-30T01:29:54.392Z,101458.44
2023-01-30T01:32:21.507Z,101462.31
2023-01-30T01:34:48.171Z,101462.59
2023-01-30T01:37:14.815Z,101462.59
2023-01-30T01:40:00.184Z,101455.06
2023-01-30T01:42:27.009Z,101461.75
2023-01-30T01:45:12.504Z,101459.44
2023-01-30T01:47:43.928Z,101458.59
2023-01-30T01:50:19.236Z,101459.69
2023-01-30T01:52:45.926Z,101477.88
2023-01-30T01:55:12.540Z,101469.50
2023-01-30T01:57:42.137Z,101468.53
2023-01-30T02:00:12.270Z,101469.91
2023-01-30T02:02:40.117Z,101468.69
2023-01-30T02:05:07.204Z,101471.75
2023-01-30T02:07:35.469Z,101462.78
2023-01-30T02:10:02.045Z,101478.94
2023-01-30T02:12:29.108Z,101484.22
2023-01-30T02:14:56.308Z,101481.94
2023-01-30T02:17:23.408Z,101487.44
2023-01-30T02:19:52.554Z,101498.22
2023-01-30T02:22:34.552Z,101496.69
2023-01-30T02:25:14.347Z,101494.88
2023-01-30T02:27:47.032Z,101498.16
2023-01-30T02:30:32.725Z,101486.91
2023-01-30T02:33:06.740Z,101478.44
2023-01-30T02:35:42.967Z,101471.78
2023-01-30T02:38:09.540Z,101458.34
2023-01-30T02:40:45.391Z,101459.44
2023-01-30T02:43:15.103Z,101474.47
2023-01-30T02:46:00.541Z,101483.53
2023-01-30T02:48:32.518Z,101463.97
2023-01-30T02:50:59.829Z,101463.84
2023-01-30T02:53:26.540Z,101456.84
2023-01-30T02:55:53.092Z,101463.38
2023-01-30T02:58:19.889Z,101470.53
2023-01-30T03:00:51.033Z,101462.06
2023-01-30T03:03:27.517Z,101456.75
2023-01-30T03:06:12.611Z,101461.59
2023-01-30T03:09:14.999Z,101465.31
2023-01-30T03:12:00.354Z,101459.16
2023-01-30T03:14:28.266Z,101466.41
2023-01-30T03:16:55.338Z,101471.25
2023-01-30T03:19:22.985Z,101463.16
2023-01-30T03:21:49.717Z,101459.28
2023-01-30T03:24:16.407Z,101459.03
2023-01-30T03:26:47.923Z,101452.50
2023-01-30T03:29:14.756Z,101462.06
2023-01-30T03:31:41.486Z,101447.19
2023-01-30T03:34:08.180Z,101450.94
2023-01-30T03:36:34.962Z,101444.31
2023-01-30T03:39:01.592Z,101449.59
2023-01-30T03:41:28.220Z,101442.09
2023-01-30T03:43:54.918Z,101437.16
2023-01-30T03:46:21.571Z,101420.69
2023-01-30T03:48:48.147Z,101431.84
2023-01-30T03:51:14.831Z,101428.56
2023-01-30T03:53:41.385Z,101419.75
2023-01-30T03:56:07.980Z,101423.59
2023-01-30T03:58:34.732Z,101429.97
2023-01-30T04:01:01.450Z,101428.63
2023-01-30T04:03:28.039Z,101427.66
2023-01-30T04:05:54.737Z,101425.72
2023-01-30T04:08:21.403Z,101444.59
2023-01-30T04:10:47.953Z,101450.63
2023-01-30T04:13:14.586Z,101448.69
2023-01-30T04:15:41.232Z,101456.78
2023-01-30T04:18:07.832Z,101459.25
2023-01-30T04:20:34.606Z,101456.56
2023-01-30T04:23:01.167Z,101455.25
2023-01-30T04:25:27.846Z,101452.69
2023-01-30T04:27:54.575Z,101465.06
2023-01-30T04:30:21.268Z,101454.91
2023-01-30T04:32:47.881Z,101469.41
2023-01-30T04:35:14.683Z,101461.44
2023-01-30T04:37:41.373Z,101469.53
2023-01-30T04:40:08.179Z,101468.22
2023-01-30T04:42:34.866Z,101475.25
2023-01-30T04:45:01.583Z,101481.75
2023-01-30T04:47:28.222Z,101475.72
2023-01-30T04:49:54.993Z,101484.06
2023-01-30T04:52:22.057Z,101482.50
2023-01-30T04:54:48.750Z,101479.22
2023-01-30T04:57:15.608Z,101485.41
2023-01-30T04:59:42.583Z,101487.09
2023-01-30T05:02:09.238Z,101487.72
2023-01-30T05:04:35.975Z,101493.88
2023-01-30T05:07:02.672Z,101484.44
2023-01-30T05:09:29.421Z,101496.41
2023-01-30T05:11:56.157Z,101495.56
2023-01-30T05:14:22.879Z,101494.72
2023-01-30T05:16:49.574Z,101497.25
2023-01-30T05:19:16.371Z,101502.22
2023-01-30T05:21:42.999Z,101507.81
2023-01-30T05:24:09.624Z,101504.16
2023-01-30T05:26:36.455Z,101511.66
2023-01-30T05:29:03.211Z,101513.84
2023-01-30T05:31:29.902Z,101518.31
2023-01-30T05:33:56.908Z,101519.63
2023-01-30T05:36:23.668Z,101511.28
2023-01-30T05:38:50.340Z,101510.44
2023-01-30T05:41:17.295Z,101507.03
2023-01-30T05:43:44.230Z,101501.09
2023-01-30T05:46:11.456Z,101499.31
2023-01-30T05:48:38.221Z,101507.16
2023-01-30T05:51:04.966Z,101504.94
2023-01-30T05:53:32.577Z,101513.16
2023-01-30T05:55:59.915Z,101502.53
2023-01-30T05:58:26.852Z,101512.91
2023-01-30T06:00:53.677Z,101506.88
2023-01-30T06:03:20.521Z,101508.19
2023-01-30T06:05:47.246Z,101520.78
2023-01-30T06:08:13.872Z,101509.19
2023-01-30T06:10:40.690Z,101518.75
2023-01-30T06:13:07.740Z,101520.47
2023-01-30T06:15:34.433Z,101514.03
2023-01-30T06:18:01.185Z,101522.72
2023-01-30T06:20:27.852Z,101522.72
2023-01-30T06:22:54.410Z,101512.34
2023-01-30T06:25:21.241Z,101511.97
2023-01-30T06:27:47.908Z,101519.22
2023-01-30T06:30:14.536Z,101516.22
2023-01-30T06:32:41.758Z,101508.94
2023-01-30T06:35:08.671Z,101532.91
2023-01-30T06:37:35.267Z,101529.03
2023-01-30T06:40:02.098Z,101538.81
2023-01-30T06:42:28.686Z,101542.44
2023-01-30T06:44:55.257Z,101547.53
2023-01-30T06:47:21.967Z,101543.91
2023-01-30T06:49:49.431Z,101553.31
2023-01-30T06:52:16.088Z,101553.81
2023-01-30T06:54:42.794Z,101560.56
2023-01-30T06:57:09.433Z,101553.56
2023-01-30T06:59:36.345Z,101557.41
2023-01-30T07:02:03.349Z,101562.50
2023-01-30T07:04:30.041Z,101565.91
2023-01-30T07:06:57.223Z,101559.50
2023-01-30T07:09:24.071Z,101556.09
2023-01-30T07:11:51.108Z,101548.22
2023-01-30T07:14:18.679Z,101544.22
2023-01-30T07:16:45.410Z,101556.91
2023-01-30T07:19:12.011Z,101549.72
2023-01-30T07:21:38.559Z,101554.44
2023-01-30T07:24:05.418Z,101564.72
2023-01-30T07:26:32.062Z,101566.75
2023-01-30T07:28:58.941Z,101569.13
2023-01-30T07:31:25.769Z,101583.28
2023-01-30T07:33:52.328Z,101583.75
2023-01-30T07:36:18.993Z,101583.03
2023-01-30T07:38:48.045Z,101588.59
2023-01-30T07:41:14.834Z,101592.47
2023-01-30T07:43:41.450Z,101598.88
2023-01-30T07:46:08.226Z,101598.88
2023-01-30T07:48:34.984Z,101595.00
2023-01-30T07:51:01.577Z,101606.13
2023-01-30T07:53:28.242Z,101612.75
2023-01-30T07:55:54.820Z,101608.97
2023-01-30T07:58:21.463Z,101611.16
2023-01-30T08:00:48.318Z,101613.69
2023-01-30T08:03:15.507Z,101620.94
2023-01-30T08:05:42.720Z,101621.56
2023-01-30T08:08:09.390Z,101624.72
2023-01-30T08:10:37.171Z,101623.91
2023-01-30T08:13:03.750Z,101635.88
2023-01-30T08:15:32.096Z,101620.81
2023-01-30T08:17:58.626Z,101631.75
2023-01-30T08:20:25.436Z,101633.72
2023-01-30T08:22:52.152Z,101627.97
2023-01-30T08:25:18.956Z,101642.75
2023-01-30T08:27:45.536Z,101641.06
2023-01-30T08:30:12.368Z,101655.97
2023-01-30T08:32:39.342Z,101665.06
2023-01-30T08:35:06.179Z,101652.59
2023-01-30T08:37:32.833Z,101672.22
2023-01-30T08:39:59.612Z,101658.31
2023-01-30T08:42:26.348Z,101644.69
2023-01-30T08:44:52.922Z,101640.19
2023-01-30T08:47:19.766Z,101647.44
2023-01-30T08:49:46.391Z,101642.97
2023-01-30T08:52:12.935Z,101639.63
2023-01-30T08:54:39.589Z,101632.09
2023-01-30T08:57:06.141Z,101646.47
2023-01-30T08:59:32.705Z,101651.25
2023-01-30T09:01:59.504Z,101647.06
2023-01-30T09:04:26.610Z,101649.06
2023-01-30T09:06:53.282Z,101658.19
2023-01-30T09:09:20.007Z,101660.16
2023-01-30T09:11:48.459Z,101657.63
2023-01-30T09:14:19.832Z,101658.97
2023-01-30T09:16:55.653Z,101650.81
2023-01-30T09:19:26.398Z,101661.13
2023-01-30T09:21:53.196Z,101661.03
2023-01-30T09:24:24.243Z,101663.41
2023-01-30T09:26:51.018Z,101674.56
2023-01-30T09:29:17.613Z,101672.13
2023-01-30T09:31:44.268Z,101680.06
2023-01-30T09:34:10.903Z,101687.34
2023-01-30T09:36:37.511Z,101686.69
2023-01-30T09:39:04.220Z,101688.22
2023-01-30T09:41:39.816Z,101682.53
2023-01-30T09:44:06.576Z,101685.19
2023-01-30T09:46:42.279Z,101685.25
2023-01-30T09:49:14.721Z,101676.03
2023-01-30T09:51:41.306Z,101684.91
2023-01-30T09:54:14.357Z,101694.31
2023-01-30T09:56:41.086Z,101685.13
2023-01-30T09:59:10.732Z,101693.28
2023-01-30T10:01:40.991Z,101692.69
2023-01-30T10:04:07.562Z,101692.34
2023-01-30T10:06:35.025Z,101700.19
2023-01-30T10:09:04.862Z,101690.13
2023-01-30T10:11:57.756Z,101695.19
2023-01-30T10:14:24.450Z,101688.09
2023-01-30T10:17:01.496Z,101687.22
2023-01-30T10:19:46.984Z,101681.78
2023-01-30T10:22:19.621Z,101690.44
2023-01-30T10:25:06.512Z,101694.06
2023-01-30T10:27:33.088Z,101692.16
2023-01-30T10:30:00.859Z,101692.25
2023-01-30T10:32:29.202Z,101685.72
2023-01-30T10:34:56.612Z,101688.81
2023-01-30T10:37:42.238Z,101686.84
2023-01-30T10:40:27.824Z,101683.81
2023-01-30T10:43:00.456Z,101677.38
2023-01-30T10:45:47.264Z,101687.84
2023-01-30T10:48:20.011Z,101688.66
2023-01-30T10:50:53.440Z,101699.00
2023-01-30T10:53:49.883Z,101700.91
2023-01-30T10:56:18.670Z,101704.25
2023-01-30T10:58:49.048Z,101708.50
2023-01-30T11:01:26.303Z,101716.25
2023-01-30T11:03:57.254Z,101715.66
2023-01-30T11:06:24.414Z,101714.53
2023-01-30T11:08:51.419Z,101729.59
2023-01-30T11:11:44.293Z,101721.00
2023-01-30T11:14:11.568Z,101721.34
2023-01-30T11:16:43.858Z,101721.53
2023-01-30T11:19:25.738Z,101720.97
2023-01-30T11:21:55.878Z,101715.13
2023-01-30T11:24:23.515Z,101720.09
2023-01-30T11:26:50.408Z,101721.47
2023-01-30T11:29:17.136Z,101728.25
2023-01-30T11:31:48.750Z,101725.66
2023-01-30T11:34:16.042Z,101719.84
2023-01-30T11:36:42.816Z,101707.69
2023-01-30T11:39:12.530Z,101704.75
2023-01-30T11:41:43.016Z,101712.47
2023-01-30T11:44:09.813Z,101699.50
2023-01-30T11:46:40.163Z,101699.81
2023-01-30T11:49:37.764Z,101700.03
2023-01-30T11:52:03.125Z,101701.50
2023-01-30T11:54:38.143Z,101697.50
2023-01-30T11:57:05.188Z,101704.19
2023-01-30T11:59:38.840Z,101695.19
2023-01-30T12:02:14.847Z,101694.72
2023-01-30T12:04:45.471Z,101698.72
2023-01-30T12:07:25.101Z,101682.84
2023-01-30T12:09:51.967Z,101686.16
2023-01-30T12:12:27.910Z,101690.03
2023-01-30T12:14:54.874Z,101668.47
2023-01-30T12:17:22.532Z,101668.72
2023-01-30T12:20:27.824Z,101664.97
2023-01-30T12:22:57.271Z,101662.72
2023-01-30T12:25:25.546Z,101661.31
2023-01-30T12:30:42.185Z,101656.28
2023-01-30T12:33:09.806Z,101646.00
2023-01-30T12:35:45.591Z,101640.81
2023-01-30T12:38:15.328Z,101636.63
2023-01-30T12:40:48.070Z,101639.25
2023-01-30T12:43:20.789Z,101627.03
2023-01-30T12:45:51.152Z,101626.72
2023-01-30T12:48:23.836Z,101626.13
2023-01-30T12:50:51.672Z,101636.06
2023-01-30T12:53:32.797Z,101625.66
2023-01-30T12:56:02.501Z,101622.88
2023-01-30T12:58:33.032Z,101621.44
2023-01-30T13:01:06.436Z,101621.38
2023-01-30T13:03:45.786Z,101625.50
2023-01-30T13:06:41.625Z,101610.53
2023-01-30T13:09:08.773Z,101613.63
2023-01-30T13:11:41.574Z,101610.84
2023-01-30T13:14:11.599Z,101609.59
2023-01-30T13:16:50.472Z,101606.75
2023-01-30T13:19:21.143Z,101599.59
2023-01-30T13:21:59.198Z,101595.94
2023-01-30T13:24:29.946Z,101586.34
2023-01-30T13:26:59.498Z,101577.47
2023-01-30T13:29:33.575Z,101578.97
2023-01-30T13:32:01.441Z,101572.34
2023-01-30T13:34:35.077Z,101570.16
2023-01-30T13:37:06.997Z,101568.00
2023-01-30T13:39:52.690Z,101561.41
2023-01-30T13:42:25.508Z,101554.22
2023-01-30T13:44:52.503Z,101550.44
2023-01-30T13:47:22.730Z,101556.44
2023-01-30T13:49:56.729Z,101556.22
2023-01-30T13:52:34.586Z,101544.56
2023-01-30T13:55:16.988Z,101546.69
2023-01-30T13:58:04.016Z,101544.66
2023-01-30T14:00:34.531Z,101546.50
2023-01-30T14:03:04.442Z,101550.19
2023-01-30T14:05:50.001Z,101544.25
2023-01-30T14:08:23.672Z,101541.34
2023-01-30T14:10:50.305Z,101548.13
2023-01-30T14:13:17.754Z,101551.41
2023-01-30T14:15:54.769Z,101541.66
2023-01-30T14:18:31.477Z,101544.84
2023-01-30T14:21:14.568Z,101539.56
2023-01-30T14:23:41.314Z,101536.81
2023-01-30T14:26:08.108Z,101534.34
2023-01-30T14:28:38.498Z,101531.00
2023-01-30T14:31:05.483Z,101526.50
2023-01-30T14:33:36.278Z,101529.88
2023-01-30T14:36:02.957Z,101532.69
2023-01-30T14:38:31.036Z,101530.75
2023-01-30T14:41:00.774Z,101531.88
2023-01-30T14:43:42.697Z,101518.13
2023-01-30T14:46:15.625Z,101526.28
2023-01-30T14:48:44.748Z,101523.19
2023-01-30T14:51:14.594Z,101527.41
2023-01-30T14:53:51.802Z,101521.25
2023-01-30T14:56:18.454Z,101522.94
2023-01-30T14:58:57.927Z,101525.16
2023-01-30T15:01:24.606Z,101528.81
2023-01-30T15:03:51.209Z,101516.47
2023-01-30T15:06:20.117Z,101523.50
2023-01-30T15:08:46.829Z,101522.38
2023-01-30T15:11:17.961Z,101529.38
2023-01-30T15:13:47.911Z,101519.56
2023-01-30T15:16:32.983Z,101520.13
2023-01-30T15:19:08.946Z,101523.22
2023-01-30T15:21:42.078Z,101515.34
2023-01-30T15:24:11.962Z,101512.81
2023-01-30T15:26:42.082Z,101509.72
2023-01-30T15:29:27.729Z,101513.09
2023-01-30T15:31:58.015Z,101515.34
2023-01-30T15:34:27.549Z,101510.28
2023-01-30T15:36:54.181Z,101512.53
2023-01-30T15:39:29.702Z,101508.31
2023-01-30T15:41:59.532Z,101507.78
2023-01-30T15:44:26.092Z,101514.78
2023-01-30T15:47:11.596Z,101518.72
2023-01-30T15:49:53.485Z,101508.59
2023-01-30T15:52:20.258Z,101512.53
2023-01-30T15:54:49.884Z,101501.84
2023-01-30T15:57:18.338Z,101520.69
2023-01-30T15:59:45.066Z,101518.41
2023-01-30T16:02:11.701Z,101522.34
2023-01-30T16:04:38.305Z,101522.06
2023-01-30T16:07:25.368Z,101522.06
2023-01-30T16:10:06.883Z,101519.81
2023-01-30T16:12:34.655Z,101525.44
2023-01-30T16:15:18.484Z,101532.16
2023-01-30T16:17:55.363Z,101540.03
2023-01-30T16:20:21.986Z,101540.56
2023-01-30T16:22:48.642Z,101543.66
2023-01-30T16:25:16.914Z,101542.81
2023-01-30T16:27:43.691Z,101545.06
2023-01-30T16:30:10.695Z,101553.75
2023-01-30T16:32:38.619Z,101549.56
2023-01-30T16:35:26.905Z,101549.56
2023-01-30T16:37:54.697Z,101561.31
2023-01-30T16:40:23.137Z,101559.06
2023-01-30T16:42:57.300Z,101554.00
2023-01-30T16:45:30.181Z,101568.59
2023-01-30T16:48:00.658Z,101566.91
2023-01-30T16:50:30.234Z,101572.22
2023-01-30T16:52:57.193Z,101580.91
2023-01-30T16:55:24.836Z,101580.59
2023-01-30T16:57:58.278Z,101583.97
2023-01-30T17:00:24.981Z,101589.84
2023-01-30T17:02:53.560Z,101585.06
2023-01-30T17:05:24.211Z,101592.63
2023-01-30T17:07:51.000Z,101595.13
2023-01-30T17:10:27.054Z,101591.16
2023-01-30T17:12:53.809Z,101602.91
2023-01-30T17:15:20.558Z,101609.91
2023-01-30T17:17:47.478Z,101606.56
2023-01-30T17:20:16.549Z,101611.56
2023-01-30T17:22:43.994Z,101613.78
2023-01-30T17:25:31.058Z,101625.22
2023-01-30T17:27:58.220Z,101626.53
2023-01-30T17:30:24.964Z,101622.59
2023-01-30T17:32:51.742Z,101626.44
2023-01-30T17:35:18.872Z,101628.66
2023-01-30T17:37:56.334Z,101628.59
2023-01-30T17:40:34.095Z,101636.38
2023-01-30T17:43:00.760Z,101637.72
2023-01-30T17:45:27.340Z,101642.41
2023-01-30T17:47:54.482Z,101641.53
2023-01-30T17:50:21.462Z,101651.84
2023-01-30T17:52:48.304Z,101664.09
2023-01-30T17:55:15.137Z,101656.78
2023-01-30T17:57:42.268Z,101661.47
2023-01-30T18:00:10.971Z,101661.69
2023-01-30T18:02:38.039Z,101658.81
2023-01-30T18:05:04.788Z,101662.91
2023-01-30T18:07:31.375Z,101658.69
2023-01-30T18:09:58.280Z,101669.22
2023-01-30T18:12:24.960Z,101673.66
2023-01-30T18:14:51.538Z,101670.81
2023-01-30T18:17:18.213Z,101673.53
2023-01-30T18:19:44.844Z,101680.75
2023-01-30T18:22:11.399Z,101674.22
2023-01-30T18:24:38.066Z,101686.22
2023-01-30T18:27:04.626Z,101686.13
2023-01-30T18:29:31.245Z,101684.09
2023-01-30T18:32:05.975Z,101690.22
2023-01-30T18:34:32.748Z,101685.41
2023-01-30T18:36:59.288Z,101692.63
2023-01-30T18:39:26.046Z,101690.34
2023-01-30T18:41:52.810Z,101696.19
2023-01-30T18:44:19.500Z,101691.97
2023-01-30T18:46:46.895Z,101698.91
2023-01-30T18:49:13.642Z,101696.34
2023-01-30T18:51:40.713Z,101701.38
2023-01-30T18:54:07.552Z,101705.00
2023-01-30T18:56:34.282Z,101701.63
2023-01-30T18:59:04.550Z,101702.13
2023-01-30T19:01:32.543Z,101704.34
2023-01-30T19:03:59.977Z,101702.66
2023-01-30T19:06:26.658Z,101700.94
2023-01-30T19:08:53.304Z,101707.91
2023-01-30T19:11:39.067Z,101709.00
2023-01-30T19:14:05.832Z,101708.44
2023-01-30T19:16:32.837Z,101710.63
2023-01-30T19:18:59.498Z,101709.78
2023-01-30T19:21:26.864Z,101705.81
2023-01-30T19:23:53.750Z,101706.03
2023-01-30T19:26:21.352Z,101711.63
2023-01-30T19:28:48.511Z,101715.53
2023-01-30T19:31:16.840Z,101709.09
2023-01-30T19:33:44.019Z,101707.41
2023-01-30T19:36:11.292Z,101710.47
2023-01-30T19:38:39.025Z,101702.56
2023-01-30T19:41:05.943Z,101697.84
2023-01-30T19:43:32.566Z,101707.31
2023-01-30T19:45:59.744Z,101700.28
2023-01-30T19:48:26.541Z,101697.50
2023-01-30T19:50:53.440Z,101702.50
2023-01-30T19:53:20.023Z,101692.41
2023-01-30T19:55:52.746Z,101701.91
2023-01-30T19:58:19.396Z,101700.78
2023-01-30T20:00:46.291Z,101699.94
2023-01-30T20:03:13.417Z,101710.28
2023-01-30T20:05:41.246Z,101701.31
2023-01-30T20:08:08.718Z,101696.25
2023-01-30T20:10:36.269Z,101700.63
2023-01-30T20:13:03.058Z,101708.44
2023-01-30T20:15:30.621Z,101708.66
2023-01-30T20:17:57.224Z,101712.84
2023-01-30T20:20:23.893Z,101710.28
2023-01-30T20:22:50.523Z,101716.38
2023-01-30T20:25:17.234Z,101717.72
2023-01-30T20:27:45.707Z,101714.84
2023-01-30T20:30:14.676Z,101719.25
2023-01-30T20:32:42.195Z,101718.06
2023-01-30T20:35:08.961Z,101718.56
2023-01-30T20:37:35.566Z,101724.38
2023-01-30T20:40:02.249Z,101721.00
2023-01-30T20:42:29.004Z,101721.84
2023-01-30T20:44:55.643Z,101731.56
2023-01-30T20:47:22.345Z,101723.44
2023-01-30T20:49:49.117Z,101729.03
2023-01-30T20:52:16.061Z,101728.44
2023-01-30T20:54:42.749Z,101732.91
2023-01-30T20:57:09.820Z,101729.03
2023-01-30T20:59:37.164Z,101738.84
2023-01-30T21:02:04.272Z,101741.41
2023-01-30T21:04:31.174Z,101736.38
2023-01-30T21:06:57.784Z,101739.19
2023-01-30T21:09:25.535Z,101743.06
2023-01-30T21:11:53.298Z,101749.16
2023-01-30T21:14:19.974Z,101753.28
2023-01-30T21:16:46.823Z,101750.25
2023-01-30T21:19:15.369Z,101751.72
2023-01-30T21:21:50.807Z,101763.22
2023-01-30T21:24:18.301Z,101768.56
2023-01-30T21:26:46.311Z,101767.22
2023-01-30T21:29:13.692Z,101765.53
2023-01-30T21:31:41.955Z,101772.69
2023-01-30T21:34:09.126Z,101773.94
2023-01-30T21:36:35.796Z,101779.06
2023-01-30T21:39:21.129Z,101777.75
2023-01-30T21:42:06.546Z,101774.25
2023-01-30T21:44:34.352Z,101781.44
2023-01-30T21:47:00.924Z,101779.13
2023-01-30T21:49:28.152Z,101782.16
2023-01-30T21:51:54.903Z,101780.72
2023-01-30T21:54:21.768Z,101774.28
2023-01-30T21:56:48.414Z,101780.94
2023-01-30T21:59:15.144Z,101775.88
2023-01-30T22:01:41.931Z,101776.63
2023-01-30T22:04:14.118Z,101774.31
2023-01-30T22:06:41.457Z,101777.59
2023-01-30T22:09:08.073Z,101778.69
2023-01-30T22:11:34.920Z,101778.91
2023-01-30T22:14:01.610Z,101773.94
2023-01-30T22:16:28.667Z,101776.84
2023-01-30T22:18:59.497Z,101777.81
2023-01-30T22:21:27.207Z,101777.56
2023-01-30T22:23:53.997Z,101774.53
2023-01-30T22:26:20.982Z,101778.41
2023-01-30T22:28:47.661Z,101772.00
2023-01-30T22:31:15.599Z,101774.19
2023-01-30T22:33:49.093Z,101773.34
2023-01-30T22:36:15.839Z,101769.44
2023-01-30T22:38:43.001Z,101772.22
2023-01-30T22:41:14.746Z,101770.28
2023-01-30T22:43:45.572Z,101774.19
2023-01-30T22:46:12.514Z,101776.13
2023-01-30T22:48:39.445Z,101778.06
2023-01-30T22:51:05.999Z,101772.13
2023-01-30T22:53:36.220Z,101777.09
2023-01-30T22:56:06.959Z,101778.19
2023-01-30T22:58:33.744Z,101775.63
2023-01-30T23:01:07.336Z,101774.19
2023-01-30T23:03:34.007Z,101776.63
2023-01-30T23:06:01.239Z,101786.56
2023-01-30T23:08:31.373Z,101782.84
2023-01-30T23:10:58.942Z,101787.69
2023-01-30T23:13:25.493Z,101784.78
2023-01-30T23:15:52.210Z,101793.03
2023-01-30T23:18:37.978Z,101794.13
2023-01-30T23:21:04.954Z,101782.38
2023-01-30T23:23:31.648Z,101790.75
2023-01-30T23:25:58.428Z,101791.81
2023-01-30T23:28:25.132Z,101794.00
2023-01-30T23:30:51.906Z,101793.16
2023-01-30T23:33:18.529Z,101795.94
2023-01-30T23:35:45.377Z,101795.06
2023-01-30T23:38:22.050Z,101805.63
2023-01-30T23:40:49.375Z,101795.34
2023-01-30T23:43:16.236Z,101803.06
2023-01-30T23:45:42.905Z,101807.44
2023-01-30T23:48:09.747Z,101804.28
2023-01-30T23:50:37.662Z,101809.28
2023-01-30T23:53:04.822Z,101810.97
2023-01-30T23:55:32.636Z,101807.56
2023-01-30T23:58:00.018Z,101804.19
